Time,TemperatureF,DewpointF,PressureIn,WindDirection,WindDirectionDegrees,WindSpeedMPH,WindSpeedGustMPH,Humidity,HourlyPrecipIn,Conditions,Clouds,dailyrainin,SolarRadiationWatts/m^2,SoftwareType,DateUTC
2013-06-04 00:02:00,66.4,64.2,29.97,SE,130,0.0,0.0,90,0.00,,,0.39,0.0,meteohub,2013-06-04 04:02:00,
2013-06-04 00:03:00,66.4,64.2,29.97,SE,130,0.0,0.0,90,0.00,,,0.39,0.0,meteohub,2013-06-04 04:03:00,
2013-06-04 00:06:00,66.4,64.2,29.97,SE,130,0.0,0.0,90,0.00,,,0.00,0.0,meteohub,2013-06-04 04:06:00,
2013-06-04 00:07:00,66.4,64.2,29.97,SE,130,0.0,0.0,90,0.00,,,0.00,0.0,meteohub,2013-06-04 04:07:00,
2013-06-04 00:12:00,66.2,64.0,29.97,SE,130,0.0,0.0,90,0.00,,,0.00,0.0,meteohub,2013-06-04 04:12:00,
2013-06-04 00:17:00,66.0,63.9,29.97,SE,130,0.0,0.0,90,0.00,,,0.00,0.0,meteohub,2013-06-04 04:17:00,
2013-06-04 00:22:00,65.8,63.7,29.97,SE,130,0.0,0.0,90,0.00,,,0.00,0.0,meteohub,2013-06-04 04:22:00,
2013-06-04 00:27:00,65.7,63.5,29.96,SE,130,0.0,0.0,90,0.00,,,0.00,0.0,meteohub,2013-06-04 04:27:00,
2013-06-04 00:32:00,65.5,63.3,29.96,SE,130,0.0,0.0,90,0.00,,,0.00,0.0,meteohub,2013-06-04 04:32:00,
2013-06-04 00:37:00,65.5,63.3,29.97,SE,130,0.0,0.0,90,0.00,,,0.00,0.0,meteohub,2013-06-04 04:37:00,
2013-06-04 00:42:00,65.3,63.1,29.97,SE,130,0.0,0.0,90,0.00,,,0.00,0.0,meteohub,2013-06-04 04:42:00,
2013-06-04 00:47:00,65.1,63.0,29.96,SE,130,0.0,0.0,90,0.00,,,0.00,0.0,meteohub,2013-06-04 04:47:00,
2013-06-04 00:52:00,64.9,62.8,29.97,SE,130,0.0,0.0,90,0.00,,,0.00,0.0,meteohub,2013-06-04 04:52:00,
2013-06-04 00:57:00,64.8,62.6,29.97,SE,130,0.0,0.0,90,0.00,,,0.00,0.0,meteohub,2013-06-04 04:57:00,
2013-06-04 01:02:00,64.8,62.6,29.97,SE,130,0.0,0.0,90,0.00,,,0.00,0.0,meteohub,2013-06-04 05:02:00,
2013-06-04 01:07:00,64.8,63.0,29.97,SE,130,0.0,0.0,91,0.00,,,0.00,0.0,meteohub,2013-06-04 05:07:00,
2013-06-04 01:12:00,64.8,63.0,29.97,SE,130,0.0,0.0,91,0.00,,,0.00,0.0,meteohub,2013-06-04 05:12:00,
2013-06-04 01:17:00,64.8,63.0,29.97,SE,130,0.0,0.0,91,0.00,,,0.00,0.0,meteohub,2013-06-04 05:17:00,
2013-06-04 01:22:00,64.8,63.0,29.97,SE,130,0.0,0.0,91,0.00,,,0.00,0.0,meteohub,2013-06-04 05:22:00,
2013-06-04 01:28:00,64.8,63.0,29.97,SE,130,0.0,0.0,91,0.00,,,0.00,0.0,meteohub,2013-06-04 05:28:00,
2013-06-04 01:35:00,64.6,62.8,29.97,SE,130,0.0,0.0,91,0.00,,,0.00,0.0,meteohub,2013-06-04 05:35:00,
2013-06-04 01:41:00,64.6,62.8,29.97,SE,130,0.0,0.0,91,0.00,,,0.00,0.0,meteohub,2013-06-04 05:41:00,
2013-06-04 01:47:00,64.6,62.8,29.97,SE,130,0.0,0.0,91,0.00,,,0.00,0.0,meteohub,2013-06-04 05:47:00,
2013-06-04 01:52:00,64.6,62.8,29.98,SE,130,0.0,0.0,91,0.00,,,0.00,0.0,meteohub,2013-06-04 05:52:00,
2013-06-04 01:57:00,64.6,62.8,29.97,SE,130,0.0,0.0,91,0.00,,,0.00,0.0,meteohub,2013-06-04 05:57:00,
2013-06-04 02:02:00,64.4,62.6,29.98,SE,130,0.0,0.0,91,0.00,,,0.00,0.0,meteohub,2013-06-04 06:02:00,
2013-06-04 02:07:00,64.4,62.6,29.98,SE,130,0.0,0.0,91,0.00,,,0.00,0.0,meteohub,2013-06-04 06:07:00,
2013-06-04 02:12:00,64.4,62.6,29.98,SE,130,0.0,0.0,91,0.00,,,0.00,0.0,meteohub,2013-06-04 06:12:00,
2013-06-04 02:17:00,64.4,62.6,29.98,SE,130,0.0,2.0,91,0.00,,,0.00,0.0,meteohub,2013-06-04 06:17:00,
2013-06-04 02:22:00,64.4,62.6,29.98,SE,130,0.0,2.0,91,0.00,,,0.00,0.0,meteohub,2013-06-04 06:22:00,
2013-06-04 02:27:00,64.4,62.6,29.98,SE,130,0.0,2.0,91,0.00,,,0.00,0.0,meteohub,2013-06-04 06:27:00,
2013-06-04 02:32:00,64.2,62.4,29.98,SE,130,0.0,0.0,91,0.00,,,0.00,0.0,meteohub,2013-06-04 06:32:00,
2013-06-04 02:37:00,64.0,62.2,29.97,SE,130,0.0,0.0,91,0.00,,,0.00,0.0,meteohub,2013-06-04 06:37:00,
2013-06-04 02:42:00,63.9,62.1,29.98,SE,130,0.0,0.0,91,0.00,,,0.00,0.0,meteohub,2013-06-04 06:42:00,
2013-06-04 02:47:00,63.9,62.1,29.97,SSE,147,0.0,1.0,91,0.00,,,0.00,0.0,meteohub,2013-06-04 06:47:00,
2013-06-04 02:52:00,63.9,62.1,29.98,SSE,147,1.0,3.0,91,0.00,,,0.00,0.0,meteohub,2013-06-04 06:52:00,
2013-06-04 02:57:00,63.7,61.9,29.98,SSE,147,0.0,3.0,91,0.00,,,0.00,0.0,meteohub,2013-06-04 06:57:00,
2013-06-04 03:02:00,63.7,61.9,29.98,SSE,147,0.0,3.0,91,0.00,,,0.00,0.0,meteohub,2013-06-04 07:02:00,
2013-06-04 03:07:00,63.7,61.9,29.98,SSE,147,0.0,2.0,91,0.00,,,0.00,0.0,meteohub,2013-06-04 07:07:00,
2013-06-04 03:12:00,63.5,61.7,29.98,SSE,147,0.0,0.0,91,0.00,,,0.00,0.0,meteohub,2013-06-04 07:12:00,
2013-06-04 03:17:00,63.3,61.5,29.98,SSE,147,0.0,0.0,91,0.00,,,0.00,0.0,meteohub,2013-06-04 07:17:00,
2013-06-04 03:22:00,63.3,61.5,29.98,SSE,147,0.0,0.0,91,0.00,,,0.00,0.0,meteohub,2013-06-04 07:22:00,
2013-06-04 03:27:00,63.3,61.5,29.97,SSE,147,0.0,0.0,91,0.00,,,0.00,0.0,meteohub,2013-06-04 07:27:00,
2013-06-04 03:33:00,63.0,61.2,29.97,SSE,147,0.0,0.0,91,0.00,,,0.00,0.0,meteohub,2013-06-04 07:33:00,
2013-06-04 03:39:00,62.8,61.0,29.97,SSE,147,0.0,0.0,91,0.00,,,0.00,0.0,meteohub,2013-06-04 07:39:00,
2013-06-04 03:45:00,62.6,60.8,29.97,SSE,147,0.0,0.0,91,0.00,,,0.00,0.0,meteohub,2013-06-04 07:45:00,
2013-06-04 03:51:00,62.4,60.6,29.97,SSE,147,0.0,1.0,91,0.00,,,0.00,0.0,meteohub,2013-06-04 07:51:00,
2013-06-04 03:57:00,62.4,60.6,29.97,SSE,147,0.0,1.0,91,0.00,,,0.00,0.0,meteohub,2013-06-04 07:57:00,
2013-06-04 04:02:00,62.1,60.3,29.97,SSE,147,0.0,1.0,91,0.00,,,0.00,0.0,meteohub,2013-06-04 08:02:00,
2013-06-04 04:07:00,62.1,60.3,29.97,SSE,147,0.0,0.0,91,0.00,,,0.00,0.0,meteohub,2013-06-04 08:07:00,
2013-06-04 04:12:00,61.9,60.1,29.97,SSE,147,0.0,0.0,91,0.00,,,0.00,0.0,meteohub,2013-06-04 08:12:00,
2013-06-04 04:17:00,61.9,60.1,29.97,SSE,147,0.0,0.0,91,0.00,,,0.00,0.0,meteohub,2013-06-04 08:17:00,
2013-06-04 04:22:00,61.9,60.1,29.97,SSE,147,0.0,0.0,91,0.00,,,0.00,0.0,meteohub,2013-06-04 08:22:00,
2013-06-04 04:27:00,61.7,59.9,29.98,SSE,147,0.0,0.0,91,0.00,,,0.00,0.0,meteohub,2013-06-04 08:27:00,
2013-06-04 04:32:00,61.7,60.3,29.97,ENE,66,0.0,3.0,92,0.00,,,0.00,0.0,meteohub,2013-06-04 08:32:00,
2013-06-04 04:37:00,61.7,60.3,29.98,ENE,66,0.0,3.0,92,0.00,,,0.00,0.0,meteohub,2013-06-04 08:37:00,
2013-06-04 04:42:00,61.7,60.3,29.98,ENE,66,0.0,3.0,92,0.00,,,0.00,0.0,meteohub,2013-06-04 08:42:00,
2013-06-04 04:47:00,61.7,59.9,29.98,ENE,66,0.0,1.0,91,0.00,,,0.00,0.0,meteohub,2013-06-04 08:47:00,
2013-06-04 04:52:00,61.7,59.9,29.98,ENE,66,0.0,0.0,91,0.00,,,0.00,0.0,meteohub,2013-06-04 08:52:00,
2013-06-04 04:57:00,61.7,59.9,29.99,ENE,66,0.0,0.0,91,0.00,,,0.00,0.0,meteohub,2013-06-04 08:57:00,
2013-06-04 05:02:00,61.5,59.7,29.99,ENE,66,0.0,1.0,91,0.00,,,0.00,0.0,meteohub,2013-06-04 09:02:00,
2013-06-04 05:07:00,61.5,59.7,29.99,ENE,66,0.0,1.0,91,0.00,,,0.00,0.0,meteohub,2013-06-04 09:07:00,
2013-06-04 05:12:00,61.5,60.1,29.99,ENE,66,0.0,1.0,92,0.00,,,0.00,0.0,meteohub,2013-06-04 09:12:00,
2013-06-04 05:17:00,61.5,60.1,29.99,ENE,66,0.0,1.0,92,0.00,,,0.00,0.0,meteohub,2013-06-04 09:17:00,
2013-06-04 05:22:00,61.2,59.4,29.99,ENE,66,0.0,1.0,91,0.00,,,0.00,0.0,meteohub,2013-06-04 09:22:00,
2013-06-04 05:27:00,61.0,59.2,30.00,ENE,66,0.0,1.0,91,0.00,,,0.00,0.0,meteohub,2013-06-04 09:27:00,
2013-06-04 05:32:00,60.8,59.0,30.00,ENE,66,0.0,1.0,91,0.00,,,0.00,0.0,meteohub,2013-06-04 09:32:00,
2013-06-04 05:37:00,60.6,58.8,30.00,ENE,66,2.0,2.0,91,0.00,,,0.00,0.0,meteohub,2013-06-04 09:37:00,
2013-06-04 05:42:00,60.6,58.6,30.01,North,5,0.0,3.0,90,0.00,,,0.00,0.0,meteohub,2013-06-04 09:42:00,
2013-06-04 05:47:00,60.4,58.5,30.01,North,5,0.0,3.0,90,0.00,,,0.00,0.0,meteohub,2013-06-04 09:47:00,
2013-06-04 05:52:00,60.3,58.3,30.01,North,5,0.0,3.0,90,0.00,,,0.00,0.0,meteohub,2013-06-04 09:52:00,
2013-06-04 05:57:00,60.4,58.5,30.01,North,5,0.0,3.0,90,0.00,,,0.00,5.0,meteohub,2013-06-04 09:57:00,
2013-06-04 06:02:00,60.3,58.3,30.02,North,5,0.0,3.0,90,0.00,,,0.00,7.0,meteohub,2013-06-04 10:02:00,
2013-06-04 06:07:00,60.3,57.9,30.02,North,5,0.0,3.0,89,0.00,,,0.00,12.0,meteohub,2013-06-04 10:07:00,
2013-06-04 06:12:00,60.3,57.9,30.03,North,5,0.0,1.0,89,0.00,,,0.00,16.0,meteohub,2013-06-04 10:12:00,
2013-06-04 06:17:00,60.3,57.6,30.03,North,5,0.0,1.0,88,0.00,,,0.00,18.0,meteohub,2013-06-04 10:17:00,
2013-06-04 06:22:00,60.3,57.6,30.03,North,0,0.0,1.0,88,0.00,,,0.00,19.0,meteohub,2013-06-04 10:22:00,
2013-06-04 06:27:00,60.3,57.6,30.04,North,0,0.0,1.0,88,0.00,,,0.00,23.0,meteohub,2013-06-04 10:27:00,
2013-06-04 06:32:00,60.4,57.7,30.04,West,265,0.0,1.0,88,0.00,,,0.00,32.0,meteohub,2013-06-04 10:32:00,
2013-06-04 06:37:00,60.4,57.7,30.04,NW,322,0.0,3.0,88,0.00,,,0.00,39.0,meteohub,2013-06-04 10:37:00,
2013-06-04 06:42:00,60.6,57.9,30.04,NW,326,0.0,6.0,88,0.00,,,0.00,72.0,meteohub,2013-06-04 10:42:00,
2013-06-04 06:47:00,60.8,57.9,30.04,NW,326,0.0,6.0,87,0.00,,,0.00,100.0,meteohub,2013-06-04 10:47:00,
2013-06-04 06:52:00,60.8,57.6,30.04,NW,326,1.0,2.0,86,0.00,,,0.00,118.0,meteohub,2013-06-04 10:52:00,
2013-06-04 06:57:00,61.0,57.7,30.04,NW,326,2.0,3.0,86,0.00,,,0.00,132.0,meteohub,2013-06-04 10:57:00,
2013-06-04 07:02:00,61.2,57.9,30.04,NW,326,1.0,3.0,86,0.00,,,0.00,144.0,meteohub,2013-06-04 11:02:00,
2013-06-04 07:07:00,61.3,58.1,30.04,NW,326,2.0,3.0,86,0.00,,,0.00,158.0,meteohub,2013-06-04 11:07:00,
2013-06-04 07:12:00,61.5,57.9,30.04,NW,322,0.0,3.0,85,0.00,,,0.00,185.0,meteohub,2013-06-04 11:12:00,
2013-06-04 07:17:00,61.7,57.7,30.04,NNE,22,2.0,2.0,84,0.00,,,0.00,200.0,meteohub,2013-06-04 11:17:00,
2013-06-04 07:22:00,62.1,58.1,30.04,NNE,22,1.0,2.0,84,0.00,,,0.00,220.0,meteohub,2013-06-04 11:22:00,
2013-06-04 07:27:00,62.4,58.1,30.04,NNE,22,0.0,3.0,83,0.00,,,0.00,239.0,meteohub,2013-06-04 11:27:00,
2013-06-04 07:32:00,62.6,57.7,30.05,NNW,346,0.0,3.0,81,0.00,,,0.00,260.0,meteohub,2013-06-04 11:32:00,
2013-06-04 07:37:00,63.0,57.7,30.05,North,5,1.0,3.0,80,0.00,,,0.00,285.0,meteohub,2013-06-04 11:37:00,
2013-06-04 07:42:00,63.7,58.5,30.05,NNE,24,1.0,4.0,80,0.00,,,0.00,304.0,meteohub,2013-06-04 11:42:00,
2013-06-04 07:47:00,64.4,58.5,30.05,NNE,24,0.0,4.0,78,0.00,,,0.00,322.0,meteohub,2013-06-04 11:47:00,
2013-06-04 07:52:00,65.1,59.2,30.05,NNE,24,0.0,4.0,78,0.00,,,0.00,336.0,meteohub,2013-06-04 11:52:00,
2013-06-04 07:57:00,65.7,58.6,30.05,NNW,338,0.0,4.0,75,0.00,,,0.00,353.0,meteohub,2013-06-04 11:57:00,
2013-06-04 08:02:00,66.2,59.2,30.05,NNW,331,0.0,4.0,75,0.00,,,0.00,369.0,meteohub,2013-06-04 12:02:00,
2013-06-04 08:07:00,66.6,59.9,30.05,NE,36,1.0,4.0,76,0.00,,,0.00,388.0,meteohub,2013-06-04 12:07:00,
2013-06-04 08:12:00,66.9,59.5,30.06,NE,42,0.0,4.0,74,0.00,,,0.00,406.0,meteohub,2013-06-04 12:12:00,
2013-06-04 08:17:00,67.3,59.9,30.06,SE,139,2.0,4.0,74,0.00,,,0.00,427.0,meteohub,2013-06-04 12:17:00,
2013-06-04 08:22:00,67.3,59.9,30.06,ESE,107,3.0,6.0,74,0.00,,,0.00,445.0,meteohub,2013-06-04 12:22:00,
2013-06-04 08:28:00,67.3,59.4,30.06,SE,128,4.0,6.0,73,0.00,,,0.00,466.0,meteohub,2013-06-04 12:28:00,
2013-06-04 08:35:00,67.5,59.5,30.07,East,82,2.0,6.0,73,0.00,,,0.00,489.0,meteohub,2013-06-04 12:35:00,
2013-06-04 08:41:00,68.0,60.1,30.07,East,88,5.0,5.0,73,0.00,,,0.00,512.0,meteohub,2013-06-04 12:41:00,
2013-06-04 08:47:00,68.4,60.1,30.07,East,79,2.0,5.0,72,0.00,,,0.00,533.0,meteohub,2013-06-04 12:47:00,
2013-06-04 08:52:00,68.9,60.3,30.07,ENE,78,0.0,5.0,71,0.00,,,0.00,555.0,meteohub,2013-06-04 12:52:00,
2013-06-04 08:57:00,68.9,59.9,30.07,East,87,4.0,6.0,70,0.00,,,0.00,571.0,meteohub,2013-06-04 12:57:00,
2013-06-04 09:02:00,69.1,61.5,30.08,East,83,3.0,6.0,74,0.00,,,0.00,587.0,meteohub,2013-06-04 13:02:00,
2013-06-04 09:08:00,69.6,60.6,30.08,NNE,19,3.0,6.0,70,0.00,,,0.00,613.0,meteohub,2013-06-04 13:08:00,
2013-06-04 09:14:00,70.0,62.4,30.08,North,355,0.0,5.0,74,0.00,,,0.00,638.0,meteohub,2013-06-04 13:14:00,
2013-06-04 09:20:00,70.3,62.1,30.09,SSE,153,1.0,5.0,72,0.00,,,0.00,656.0,meteohub,2013-06-04 13:20:00,
2013-06-04 09:26:00,70.5,60.3,30.09,East,95,3.0,7.0,67,0.00,,,0.00,671.0,meteohub,2013-06-04 13:26:00,
2013-06-04 09:32:00,70.7,62.4,30.09,East,92,0.0,7.0,72,0.00,,,0.00,703.0,meteohub,2013-06-04 13:32:00,
2013-06-04 09:37:00,71.1,60.8,30.09,ENE,59,3.0,7.0,67,0.00,,,0.00,717.0,meteohub,2013-06-04 13:37:00,
2013-06-04 09:42:00,71.1,59.9,30.09,ENE,78,3.0,10.0,65,0.00,,,0.00,738.0,meteohub,2013-06-04 13:42:00,
2013-06-04 09:47:00,71.2,60.4,30.09,East,95,2.0,10.0,66,0.00,,,0.00,782.0,meteohub,2013-06-04 13:47:00,
2013-06-04 09:52:00,71.1,59.9,30.09,ENE,72,4.0,10.0,65,0.00,,,0.00,789.0,meteohub,2013-06-04 13:52:00,
2013-06-04 09:57:00,70.9,60.3,30.10,East,92,2.0,9.0,66,0.00,,,0.00,795.0,meteohub,2013-06-04 13:57:00,
2013-06-04 10:02:00,70.9,61.3,30.10,ENE,65,2.0,9.0,69,0.00,,,0.00,874.0,meteohub,2013-06-04 14:02:00,
2013-06-04 10:07:00,70.9,59.4,30.09,ESE,110,0.0,7.0,64,0.00,,,0.00,847.0,meteohub,2013-06-04 14:07:00,
2013-06-04 10:12:00,70.9,60.6,30.10,NE,54,1.0,7.0,67,0.00,,,0.00,847.0,meteohub,2013-06-04 14:12:00,
2013-06-04 10:17:00,71.4,60.3,30.09,SW,232,1.0,7.0,65,0.00,,,0.00,526.0,meteohub,2013-06-04 14:17:00,
2013-06-04 10:22:00,71.2,61.0,30.09,SW,233,0.0,6.0,67,0.00,,,0.00,905.0,meteohub,2013-06-04 14:22:00,
2013-06-04 10:27:00,71.1,61.2,30.09,SW,233,0.0,6.0,68,0.00,,,0.00,190.0,meteohub,2013-06-04 14:27:00,
2013-06-04 10:33:00,70.5,60.3,30.09,SW,233,0.0,6.0,67,0.00,,,0.00,225.0,meteohub,2013-06-04 14:33:00,
2013-06-04 10:39:00,70.0,60.1,30.09,SW,233,0.0,2.0,68,0.00,,,0.00,255.0,meteohub,2013-06-04 14:39:00,
2013-06-04 10:45:00,69.8,60.3,30.09,East,98,4.0,4.0,69,0.00,,,0.00,232.0,meteohub,2013-06-04 14:45:00,
2013-06-04 10:51:00,69.8,59.5,30.09,East,84,0.0,5.0,67,0.00,,,0.00,288.0,meteohub,2013-06-04 14:51:00,
2013-06-04 10:57:00,69.8,59.5,30.09,ENE,73,0.0,5.0,67,0.00,,,0.00,285.0,meteohub,2013-06-04 14:57:00,
2013-06-04 11:02:00,70.0,60.4,30.10,East,80,3.0,5.0,69,0.00,,,0.00,1060.0,meteohub,2013-06-04 15:02:00,
2013-06-04 11:07:00,70.7,60.4,30.10,SE,132,4.0,4.0,67,0.00,,,0.00,1086.0,meteohub,2013-06-04 15:07:00,
2013-06-04 11:13:00,71.6,60.1,30.09,NE,44,0.0,5.0,64,0.00,,,0.00,1111.0,meteohub,2013-06-04 15:13:00,
2013-06-04 11:19:00,72.7,60.3,30.10,ENE,61,3.0,5.0,62,0.00,,,0.00,1093.0,meteohub,2013-06-04 15:19:00,
2013-06-04 11:25:00,73.4,60.4,30.10,NNW,329,0.0,6.0,61,0.00,,,0.00,297.0,meteohub,2013-06-04 15:25:00,
2013-06-04 11:31:00,73.4,61.3,30.10,North,350,2.0,6.0,63,0.00,,,0.00,1127.0,meteohub,2013-06-04 15:31:00,
2013-06-04 11:37:00,73.6,60.6,30.10,West,274,0.0,6.0,61,0.00,,,0.00,265.0,meteohub,2013-06-04 15:37:00,
2013-06-04 11:42:00,73.4,59.2,30.10,East,91,0.0,6.0,58,0.00,,,0.00,1179.0,meteohub,2013-06-04 15:42:00,
2013-06-04 11:47:00,73.6,58.3,30.10,SE,128,0.0,6.0,56,0.00,,,0.00,1218.0,meteohub,2013-06-04 15:47:00,
2013-06-04 11:52:00,73.8,59.0,30.10,East,98,3.0,7.0,57,0.00,,,0.00,1120.0,meteohub,2013-06-04 15:52:00,
2013-06-04 11:57:00,73.8,58.5,30.10,NW,304,3.0,7.0,56,0.00,,,0.00,1104.0,meteohub,2013-06-04 15:57:00,
2013-06-04 12:04:00,74.1,58.8,30.10,NE,38,1.0,7.0,56,0.00,,,0.00,1157.0,meteohub,2013-06-04 16:04:00,
2013-06-04 12:11:00,74.1,58.5,30.10,ENE,65,2.0,5.0,55,0.00,,,0.00,336.0,meteohub,2013-06-04 16:11:00,
2013-06-04 12:17:00,73.8,59.0,30.09,East,84,0.0,5.0,57,0.00,,,0.00,1197.0,meteohub,2013-06-04 16:17:00,
2013-06-04 12:22:00,74.1,59.4,30.09,ENE,71,3.0,9.0,57,0.00,,,0.00,1150.0,meteohub,2013-06-04 16:22:00,
2013-06-04 12:27:00,74.5,59.2,30.09,ENE,65,1.0,9.0,56,0.00,,,0.00,1150.0,meteohub,2013-06-04 16:27:00,
2013-06-04 12:32:00,74.3,57.0,30.09,ENE,74,2.0,5.0,52,0.00,,,0.00,1176.0,meteohub,2013-06-04 16:32:00,
2013-06-04 12:37:00,74.3,59.5,30.09,ESE,109,2.0,5.0,57,0.00,,,0.00,1190.0,meteohub,2013-06-04 16:37:00,
2013-06-04 12:42:00,74.1,57.9,30.10,ENE,69,2.0,7.0,54,0.00,,,0.00,295.0,meteohub,2013-06-04 16:42:00,
2013-06-04 12:47:00,74.1,59.4,30.10,East,90,5.0,10.0,57,0.00,,,0.00,1121.0,meteohub,2013-06-04 16:47:00,
2013-06-04 12:52:00,74.3,58.1,30.10,East,80,1.0,10.0,54,0.00,,,0.00,1151.0,meteohub,2013-06-04 16:52:00,
2013-06-04 12:57:00,74.7,58.5,30.09,SSE,149,2.0,9.0,54,0.00,,,0.00,1176.0,meteohub,2013-06-04 16:57:00,
2013-06-04 13:02:00,74.5,58.6,30.09,SSE,149,2.0,7.0,55,0.00,,,0.00,1157.0,meteohub,2013-06-04 17:02:00,
2013-06-04 13:07:00,74.7,58.5,30.09,NE,53,1.0,7.0,54,0.00,,,0.00,1150.0,meteohub,2013-06-04 17:07:00,
2013-06-04 13:12:00,75.0,56.7,30.09,ENE,67,0.0,7.0,50,0.00,,,0.00,1167.0,meteohub,2013-06-04 17:12:00,
2013-06-04 13:17:00,75.2,57.9,30.09,SE,144,2.0,7.0,52,0.00,,,0.00,1078.0,meteohub,2013-06-04 17:17:00,
2013-06-04 13:22:00,75.0,56.7,30.09,SSE,161,3.0,7.0,50,0.00,,,0.00,1071.0,meteohub,2013-06-04 17:22:00,
2013-06-04 13:27:00,74.5,56.7,30.09,SSE,151,2.0,7.0,51,0.00,,,0.00,1093.0,meteohub,2013-06-04 17:27:00,
2013-06-04 13:32:00,74.5,55.8,30.08,SSE,150,0.0,4.0,49,0.00,,,0.00,1107.0,meteohub,2013-06-04 17:32:00,
2013-06-04 13:37:00,74.7,56.8,30.08,ESE,122,3.0,4.0,51,0.00,,,0.00,1114.0,meteohub,2013-06-04 17:37:00,
2013-06-04 13:42:00,74.8,57.6,30.09,East,94,5.0,5.0,52,0.00,,,0.00,1127.0,meteohub,2013-06-04 17:42:00,
2013-06-04 13:47:00,75.0,57.2,30.08,SE,134,0.0,8.0,51,0.00,,,0.00,1042.0,meteohub,2013-06-04 17:47:00,
2013-06-04 13:52:00,75.0,57.7,30.09,East,90,0.0,8.0,52,0.00,,,0.00,1023.0,meteohub,2013-06-04 17:52:00,
2013-06-04 13:57:00,75.6,56.1,30.09,East,94,0.0,5.0,48,0.00,,,0.00,1044.0,meteohub,2013-06-04 17:57:00,
2013-06-04 14:02:00,75.9,57.0,30.09,NE,41,2.0,4.0,49,0.00,,,0.00,250.0,meteohub,2013-06-04 18:02:00,
2013-06-04 14:07:00,75.7,57.4,30.09,SSE,148,3.0,10.0,50,0.00,,,0.00,155.0,meteohub,2013-06-04 18:07:00,
2013-06-04 14:12:00,75.4,56.5,30.09,North,5,4.0,11.0,49,0.00,,,0.00,1042.0,meteohub,2013-06-04 18:12:00,
2013-06-04 14:18:00,75.4,58.6,30.09,SSW,209,2.0,11.0,53,0.00,,,0.00,1020.0,meteohub,2013-06-04 18:18:00,
2013-06-04 14:25:00,75.6,57.2,30.09,ESE,102,2.0,11.0,50,0.00,,,0.00,988.0,meteohub,2013-06-04 18:25:00,
2013-06-04 14:31:00,75.4,56.5,30.09,East,100,3.0,11.0,49,0.00,,,0.00,1049.0,meteohub,2013-06-04 18:31:00,
2013-06-04 14:37:00,75.6,58.3,30.09,ENE,65,5.0,11.0,52,0.00,,,0.00,1028.0,meteohub,2013-06-04 18:37:00,
2013-06-04 14:43:00,76.3,58.8,30.08,NE,55,6.0,10.0,52,0.00,,,0.00,993.0,meteohub,2013-06-04 18:43:00,
2013-06-04 14:49:00,76.5,57.0,30.08,ESE,113,1.0,10.0,48,0.00,,,0.00,935.0,meteohub,2013-06-04 18:49:00,
2013-06-04 14:55:00,76.3,57.9,30.08,ESE,114,2.0,10.0,50,0.00,,,0.00,911.0,meteohub,2013-06-04 18:55:00,
2013-06-04 15:01:00,76.5,59.0,30.08,NNE,14,1.0,10.0,52,0.00,,,0.00,909.0,meteohub,2013-06-04 19:01:00,
2013-06-04 15:07:00,77.0,59.0,30.08,NE,45,6.0,6.0,51,0.00,,,0.00,898.0,meteohub,2013-06-04 19:07:00,
2013-06-04 15:12:00,76.8,58.3,30.07,ESE,102,0.0,7.0,50,0.00,,,0.00,889.0,meteohub,2013-06-04 19:12:00,
2013-06-04 15:17:00,77.0,59.5,30.07,East,84,2.0,7.0,52,0.00,,,0.00,877.0,meteohub,2013-06-04 19:17:00,
2013-06-04 15:22:00,77.0,56.8,30.07,NNW,343,3.0,7.0,47,0.00,,,0.00,872.0,meteohub,2013-06-04 19:22:00,
2013-06-04 15:27:00,77.0,59.0,30.07,WNW,284,0.0,6.0,51,0.00,,,0.00,863.0,meteohub,2013-06-04 19:27:00,
2013-06-04 15:32:00,77.4,58.8,30.07,WNW,284,0.0,4.0,50,0.00,,,0.00,846.0,meteohub,2013-06-04 19:32:00,
2013-06-04 15:37:00,77.2,57.0,30.06,SSE,149,5.0,5.0,47,0.00,,,0.00,831.0,meteohub,2013-06-04 19:37:00,
2013-06-04 15:42:00,76.8,57.9,30.07,SE,136,2.0,7.0,49,0.00,,,0.00,830.0,meteohub,2013-06-04 19:42:00,
2013-06-04 15:47:00,76.6,57.2,30.07,SE,139,3.0,10.0,48,0.00,,,0.00,816.0,meteohub,2013-06-04 19:47:00,
2013-06-04 15:53:00,76.5,57.0,30.07,SSE,150,4.0,10.0,48,0.00,,,0.00,837.0,meteohub,2013-06-04 19:53:00,
2013-06-04 15:59:00,76.5,58.1,30.07,SE,128,2.0,10.0,50,0.00,,,0.00,819.0,meteohub,2013-06-04 19:59:00,
2013-06-04 16:05:00,77.0,56.8,30.07,ESE,123,4.0,6.0,47,0.00,,,0.00,775.0,meteohub,2013-06-04 20:05:00,
2013-06-04 16:11:00,76.8,58.3,30.07,SE,124,1.0,6.0,50,0.00,,,0.00,735.0,meteohub,2013-06-04 20:11:00,
2013-06-04 16:17:00,77.0,57.9,30.07,SE,145,0.0,6.0,49,0.00,,,0.00,712.0,meteohub,2013-06-04 20:17:00,
2013-06-04 16:23:00,77.4,56.7,30.07,NNW,327,0.0,6.0,46,0.00,,,0.00,693.0,meteohub,2013-06-04 20:23:00,
2013-06-04 16:30:00,77.5,56.3,30.07,ESE,105,0.0,6.0,45,0.00,,,0.00,689.0,meteohub,2013-06-04 20:30:00,
2013-06-04 16:36:00,77.4,57.7,30.07,ESE,117,4.0,7.0,48,0.00,,,0.00,689.0,meteohub,2013-06-04 20:36:00,
2013-06-04 16:42:00,77.0,57.9,30.07,ENE,63,6.0,9.0,49,0.00,,,0.00,643.0,meteohub,2013-06-04 20:42:00,
2013-06-04 16:47:00,76.8,57.9,30.06,ESE,121,4.0,9.0,49,0.00,,,0.00,619.0,meteohub,2013-06-04 20:47:00,
2013-06-04 16:52:00,76.8,58.3,30.06,East,101,5.0,9.0,50,0.00,,,0.00,606.0,meteohub,2013-06-04 20:52:00,
2013-06-04 16:57:00,76.5,56.5,30.06,ESE,113,3.0,9.0,47,0.00,,,0.00,592.0,meteohub,2013-06-04 20:57:00,
2013-06-04 17:02:00,76.1,56.7,30.06,SE,146,4.0,9.0,48,0.00,,,0.00,580.0,meteohub,2013-06-04 21:02:00,
2013-06-04 17:07:00,76.1,56.7,30.05,SE,130,5.0,9.0,48,0.00,,,0.00,566.0,meteohub,2013-06-04 21:07:00,
2013-06-04 17:12:00,76.3,57.4,30.05,SE,125,4.0,9.0,49,0.00,,,0.00,547.0,meteohub,2013-06-04 21:12:00,
2013-06-04 17:17:00,76.3,56.8,30.06,SE,134,3.0,9.0,48,0.00,,,0.00,522.0,meteohub,2013-06-04 21:17:00,
2013-06-04 17:22:00,76.3,57.4,30.05,SSE,167,2.0,6.0,49,0.00,,,0.00,369.0,meteohub,2013-06-04 21:22:00,
2013-06-04 17:27:00,76.3,57.9,30.05,ESE,110,3.0,5.0,50,0.00,,,0.00,471.0,meteohub,2013-06-04 21:27:00,
2013-06-04 17:32:00,76.3,57.4,30.05,SE,135,0.0,5.0,49,0.00,,,0.00,483.0,meteohub,2013-06-04 21:32:00,
2013-06-04 17:37:00,76.3,57.9,30.05,ENE,71,2.0,5.0,50,0.00,,,0.00,468.0,meteohub,2013-06-04 21:37:00,
2013-06-04 17:42:00,76.5,57.6,30.05,ESE,116,3.0,7.0,49,0.00,,,0.00,445.0,meteohub,2013-06-04 21:42:00,
2013-06-04 17:47:00,76.3,56.8,30.05,SE,129,3.0,7.0,48,0.00,,,0.00,413.0,meteohub,2013-06-04 21:47:00,
2013-06-04 17:52:00,76.3,57.9,30.05,ESE,121,0.0,7.0,50,0.00,,,0.00,408.0,meteohub,2013-06-04 21:52:00,
2013-06-04 17:57:00,76.5,58.1,30.05,SSE,154,3.0,6.0,50,0.00,,,0.00,383.0,meteohub,2013-06-04 21:57:00,
2013-06-04 18:02:00,76.5,57.6,30.05,ESE,107,0.0,5.0,49,0.00,,,0.00,366.0,meteohub,2013-06-04 22:02:00,
2013-06-04 18:07:00,76.5,57.6,30.05,SE,124,6.0,6.0,49,0.00,,,0.00,352.0,meteohub,2013-06-04 22:07:00,
2013-06-04 18:12:00,76.3,57.9,30.05,ENE,61,0.0,7.0,50,0.00,,,0.00,338.0,meteohub,2013-06-04 22:12:00,
2013-06-04 18:17:00,76.3,58.5,30.05,SE,143,0.0,7.0,51,0.00,,,0.00,316.0,meteohub,2013-06-04 22:17:00,
2013-06-04 18:22:00,76.3,56.8,30.05,ESE,103,3.0,7.0,48,0.00,,,0.00,308.0,meteohub,2013-06-04 22:22:00,
2013-06-04 18:27:00,76.3,57.9,30.04,ENE,76,0.0,6.0,50,0.00,,,0.00,281.0,meteohub,2013-06-04 22:27:00,
2013-06-04 18:32:00,76.1,58.3,30.05,East,90,0.0,6.0,51,0.00,,,0.00,271.0,meteohub,2013-06-04 22:32:00,
2013-06-04 18:37:00,76.1,57.7,30.04,ESE,105,1.0,5.0,50,0.00,,,0.00,251.0,meteohub,2013-06-04 22:37:00,
2013-06-04 18:42:00,76.1,58.3,30.05,ENE,74,0.0,5.0,51,0.00,,,0.00,239.0,meteohub,2013-06-04 22:42:00,
2013-06-04 18:47:00,76.1,58.3,30.04,SE,131,2.0,5.0,51,0.00,,,0.00,218.0,meteohub,2013-06-04 22:47:00,
2013-06-04 18:52:00,75.6,57.2,30.05,ESE,110,4.0,6.0,50,0.00,,,0.00,202.0,meteohub,2013-06-04 22:52:00,
2013-06-04 18:57:00,75.4,55.9,30.05,ESE,109,3.0,6.0,48,0.00,,,0.00,186.0,meteohub,2013-06-04 22:57:00,
2013-06-04 19:02:00,75.2,56.3,30.05,ESE,109,1.0,6.0,49,0.00,,,0.00,172.0,meteohub,2013-06-04 23:02:00,
2013-06-04 19:07:00,75.0,56.7,30.05,ESE,121,1.0,4.0,50,0.00,,,0.00,151.0,meteohub,2013-06-04 23:07:00,
2013-06-04 19:12:00,74.7,56.8,30.05,ESE,113,1.0,4.0,51,0.00,,,0.00,56.0,meteohub,2013-06-04 23:12:00,
2013-06-04 19:17:00,74.5,56.7,30.05,ESE,113,0.0,4.0,51,0.00,,,0.00,44.0,meteohub,2013-06-04 23:17:00,
2013-06-04 19:22:00,74.3,58.1,30.06,ESE,113,0.0,4.0,54,0.00,,,0.00,42.0,meteohub,2013-06-04 23:22:00,
2013-06-04 19:27:00,73.9,59.2,30.06,ESE,113,0.0,4.0,57,0.00,,,0.00,35.0,meteohub,2013-06-04 23:27:00,
2013-06-04 19:32:00,73.4,59.5,30.06,ESE,113,0.0,1.0,59,0.00,,,0.00,35.0,meteohub,2013-06-04 23:32:00,
2013-06-04 19:37:00,72.9,59.5,30.06,ESE,113,0.0,1.0,60,0.00,,,0.00,30.0,meteohub,2013-06-04 23:37:00,
2013-06-04 19:42:00,72.3,60.8,30.06,ESE,113,0.0,1.0,64,0.00,,,0.00,28.0,meteohub,2013-06-04 23:42:00,
2013-06-04 19:47:00,71.6,60.1,30.06,ESE,113,0.0,0.0,64,0.00,,,0.00,25.0,meteohub,2013-06-04 23:47:00,
2013-06-04 19:52:00,70.9,60.6,30.06,ESE,114,0.0,1.0,67,0.00,,,0.00,23.0,meteohub,2013-06-04 23:52:00,
2013-06-04 19:57:00,70.2,59.9,30.06,ESE,114,0.0,1.0,67,0.00,,,0.00,21.0,meteohub,2013-06-04 23:57:00,
2013-06-04 20:02:00,69.6,59.7,30.06,ESE,114,0.0,1.0,68,0.00,,,0.00,18.0,meteohub,2013-06-05 00:02:00,
2013-06-04 20:07:00,69.1,59.7,30.06,ESE,113,0.0,0.0,69,0.00,,,0.00,16.0,meteohub,2013-06-05 00:07:00,
2013-06-04 20:12:00,68.5,59.5,30.06,West,270,0.0,0.0,70,0.00,,,0.00,12.0,meteohub,2013-06-05 00:12:00,
2013-06-04 20:17:00,67.8,59.2,30.06,West,269,0.0,0.0,71,0.00,,,0.00,11.0,meteohub,2013-06-05 00:17:00,
2013-06-04 20:22:00,67.3,59.0,30.07,West,269,0.0,0.0,72,0.00,,,0.00,9.0,meteohub,2013-06-05 00:22:00,
2013-06-04 20:27:00,66.6,58.8,30.07,West,269,0.0,0.0,73,0.00,,,0.00,5.0,meteohub,2013-06-05 00:27:00,
2013-06-04 20:32:00,66.2,58.5,30.08,West,269,0.0,0.0,73,0.00,,,0.00,0.0,meteohub,2013-06-05 00:32:00,
2013-06-04 20:37:00,65.7,58.6,30.08,West,269,0.0,0.0,75,0.00,,,0.00,0.0,meteohub,2013-06-05 00:37:00,
2013-06-04 20:42:00,65.1,57.7,30.08,West,269,0.0,0.0,74,0.00,,,0.00,0.0,meteohub,2013-06-05 00:42:00,
2013-06-04 20:47:00,64.8,57.4,30.08,West,269,0.0,0.0,74,0.00,,,0.00,0.0,meteohub,2013-06-05 00:47:00,
2013-06-04 20:52:00,64.4,57.4,30.09,West,269,0.0,0.0,75,0.00,,,0.00,0.0,meteohub,2013-06-05 00:52:00,
2013-06-04 20:57:00,64.0,57.4,30.09,West,269,0.0,0.0,76,0.00,,,0.00,0.0,meteohub,2013-06-05 00:57:00,
2013-06-04 21:02:00,63.7,57.4,30.09,West,269,0.0,0.0,77,0.00,,,0.00,0.0,meteohub,2013-06-05 01:02:00,
2013-06-04 21:07:00,63.3,57.4,30.09,West,269,0.0,0.0,78,0.00,,,0.00,0.0,meteohub,2013-06-05 01:07:00,
2013-06-04 21:12:00,63.0,57.4,30.09,West,269,0.0,0.0,79,0.00,,,0.00,0.0,meteohub,2013-06-05 01:12:00,
2013-06-04 21:19:00,62.4,57.2,30.10,West,269,0.0,0.0,80,0.00,,,0.00,0.0,meteohub,2013-06-05 01:19:00,
2013-06-04 21:25:00,61.9,57.0,30.10,West,269,0.0,0.0,81,0.00,,,0.00,0.0,meteohub,2013-06-05 01:25:00,
2013-06-04 21:31:00,61.5,56.7,30.11,West,269,0.0,0.0,81,0.00,,,0.00,0.0,meteohub,2013-06-05 01:31:00,
2013-06-04 21:37:00,61.2,56.7,30.11,West,269,0.0,0.0,82,0.00,,,0.00,0.0,meteohub,2013-06-05 01:37:00,
2013-06-04 21:42:00,60.8,56.3,30.11,West,269,0.0,0.0,82,0.00,,,0.00,0.0,meteohub,2013-06-05 01:42:00,
2013-06-04 21:47:00,60.6,56.5,30.11,West,269,0.0,0.0,83,0.00,,,0.00,0.0,meteohub,2013-06-05 01:47:00,
2013-06-04 21:52:00,60.3,56.1,30.12,West,269,0.0,0.0,83,0.00,,,0.00,0.0,meteohub,2013-06-05 01:52:00,
2013-06-04 21:57:00,60.1,56.1,30.12,West,269,0.0,0.0,84,0.00,,,0.00,0.0,meteohub,2013-06-05 01:57:00,
2013-06-04 22:02:00,59.9,55.9,30.12,West,269,0.0,0.0,84,0.00,,,0.00,0.0,meteohub,2013-06-05 02:02:00,
2013-06-04 22:07:00,59.7,55.8,30.12,West,269,0.0,0.0,84,0.00,,,0.00,0.0,meteohub,2013-06-05 02:07:00,
2013-06-04 22:12:00,59.4,55.8,30.12,West,269,0.0,0.0,85,0.00,,,0.00,0.0,meteohub,2013-06-05 02:12:00,
2013-06-04 22:17:00,59.2,55.9,30.13,West,269,0.0,0.0,86,0.00,,,0.00,0.0,meteohub,2013-06-05 02:17:00,
2013-06-04 22:22:00,59.2,55.9,30.13,West,269,0.0,0.0,86,0.00,,,0.00,0.0,meteohub,2013-06-05 02:22:00,
2013-06-04 22:27:00,59.0,55.8,30.13,West,269,0.0,0.0,86,0.00,,,0.00,0.0,meteohub,2013-06-05 02:27:00,
2013-06-04 22:32:00,58.8,55.6,30.13,West,269,0.0,0.0,86,0.00,,,0.00,0.0,meteohub,2013-06-05 02:32:00,
2013-06-04 22:38:00,58.5,55.2,30.13,West,269,0.0,0.0,86,0.00,,,0.00,0.0,meteohub,2013-06-05 02:38:00,
2013-06-04 22:44:00,58.3,55.4,30.13,West,269,0.0,0.0,87,0.00,,,0.00,0.0,meteohub,2013-06-05 02:44:00,
2013-06-04 22:50:00,58.1,55.2,30.14,West,269,0.0,0.0,87,0.00,,,0.00,0.0,meteohub,2013-06-05 02:50:00,
2013-06-04 22:56:00,57.7,54.9,30.14,West,269,0.0,0.0,87,0.00,,,0.00,0.0,meteohub,2013-06-05 02:56:00,
2013-06-04 23:02:00,57.6,54.7,30.14,West,269,0.0,0.0,87,0.00,,,0.00,0.0,meteohub,2013-06-05 03:02:00,
2013-06-04 23:07:00,57.4,54.5,30.14,West,269,0.0,0.0,87,0.00,,,0.00,0.0,meteohub,2013-06-05 03:07:00,
2013-06-04 23:12:00,57.4,54.5,30.14,West,269,0.0,0.0,87,0.00,,,0.00,0.0,meteohub,2013-06-05 03:12:00,
2013-06-04 23:17:00,57.2,54.7,30.14,West,269,0.0,0.0,88,0.00,,,0.00,0.0,meteohub,2013-06-05 03:17:00,
2013-06-04 23:22:00,57.2,54.7,30.14,West,269,0.0,0.0,88,0.00,,,0.00,0.0,meteohub,2013-06-05 03:22:00,
2013-06-04 23:27:00,57.0,54.5,30.14,West,269,0.0,0.0,88,0.00,,,0.00,0.0,meteohub,2013-06-05 03:27:00,
2013-06-04 23:32:00,57.0,54.5,30.14,West,269,0.0,0.0,88,0.00,,,0.00,0.0,meteohub,2013-06-05 03:32:00,
2013-06-04 23:37:00,56.8,54.3,30.14,West,269,0.0,0.0,88,0.00,,,0.00,0.0,meteohub,2013-06-05 03:37:00,
2013-06-04 23:42:00,56.7,54.1,30.14,West,269,0.0,0.0,88,0.00,,,0.00,0.0,meteohub,2013-06-05 03:42:00,
2013-06-04 23:47:00,56.5,54.1,30.14,West,269,0.0,0.0,89,0.00,,,0.00,0.0,meteohub,2013-06-05 03:47:00,
2013-06-04 23:52:00,56.5,54.1,30.14,West,269,0.0,0.0,89,0.00,,,0.00,0.0,meteohub,2013-06-05 03:52:00,
2013-06-04 23:57:00,56.3,54.0,30.14,West,269,0.0,0.0,89,0.00,,,0.00,0.0,meteohub,2013-06-05 03:57:00,